createdAt,value
2022-09-16T00:01:22.590Z,98657.72
2022-09-16T00:03:56.818Z,98658.41
2022-09-16T00:06:29.555Z,98662.84
2022-09-16T00:09:03.671Z,98664.19
2022-09-16T00:11:35.206Z,98666.03
2022-09-16T00:14:04.046Z,98669.81
2022-09-16T00:16:31.843Z,98674.34
2022-09-16T00:19:02.039Z,98683.53
2022-09-16T00:21:31.597Z,98683.41
2022-09-16T00:23:59.529Z,98686.59
2022-09-16T00:26:29.967Z,98686.22
2022-09-16T00:28:58.473Z,98688.88
2022-09-16T00:31:26.240Z,98687.72
2022-09-16T00:33:54.688Z,98687.22
2022-09-16T00:36:23.138Z,98682.38
2022-09-16T00:38:55.272Z,98683.75
2022-09-16T00:41:33.675Z,98686.47
2022-09-16T00:44:08.067Z,98692.84
2022-09-16T00:46:44.591Z,98695.53
2022-09-16T00:49:29.705Z,98700.75
2022-09-16T00:52:03.860Z,98705.69
2022-09-16T00:54:34.240Z,98705.72
2022-09-16T00:57:04.992Z,98707.13
2022-09-16T00:59:43.330Z,98718.81
2022-09-16T01:02:18.151Z,98722.44
2022-09-16T01:05:19.286Z,98720.63
2022-09-16T01:07:54.331Z,98724.78
2022-09-16T01:10:26.634Z,98721.94
2022-09-16T01:13:08.684Z,98727.75
2022-09-16T01:16:00.127Z,98735.56
2022-09-16T01:19:02.051Z,98727.75
2022-09-16T01:22:29.772Z,98724.94
2022-09-16T01:25:35.918Z,98732.13
2022-09-16T01:28:22.214Z,98722.13
2022-09-16T01:32:04.319Z,98720.41
2022-09-16T01:35:17.279Z,98723.72
2022-09-16T01:38:17.233Z,98732.25
2022-09-16T01:41:05.478Z,98733.94
2022-09-16T01:44:20.027Z,98730.06
2022-09-16T01:47:05.166Z,98726.41
2022-09-16T01:49:56.517Z,98717.84
2022-09-16T01:53:09.255Z,98707.66
2022-09-16T01:55:59.795Z,98710.81
2022-09-16T01:58:49.506Z,98714.44
2022-09-16T02:01:36.076Z,98735.28
2022-09-16T02:04:46.413Z,98734.22
2022-09-16T02:07:25.449Z,98740.22
2022-09-16T02:10:01.453Z,98742.22
2022-09-16T02:12:35.124Z,98746.50
2022-09-16T02:15:11.554Z,98745.97
2022-09-16T02:17:47.927Z,98745.16
2022-09-16T02:20:27.986Z,98746.41
2022-09-16T02:23:34.252Z,98752.19
2022-09-16T02:26:07.020Z,98740.38
2022-09-16T02:28:44.564Z,98743.91
2022-09-16T02:31:15.050Z,98742.91
2022-09-16T02:33:47.197Z,98745.13
2022-09-16T02:36:22.209Z,98737.53
2022-09-16T02:39:09.459Z,98734.94
2022-09-16T02:41:41.403Z,98739.22
2022-09-16T02:44:11.350Z,98743.47
2022-09-16T02:46:58.345Z,98741.91
2022-09-16T02:50:12.938Z,98742.75
2022-09-16T02:53:02.812Z,98743.31
2022-09-16T02:55:53.808Z,98748.59
2022-09-16T02:58:21.737Z,98758.94
2022-09-16T03:00:55.781Z,98760.84
2022-09-16T03:03:27.128Z,98772.47
2022-09-16T03:06:10.009Z,98774.84
2022-09-16T03:08:39.226Z,98774.63
2022-09-16T03:11:38.316Z,98783.63
2022-09-16T03:14:37.605Z,98782.47
2022-09-16T03:17:12.807Z,98789.31
2022-09-16T03:19:57.477Z,98788.44
2022-09-16T03:22:38.164Z,98787.00
2022-09-16T03:25:53.497Z,98781.91
2022-09-16T03:28:46.318Z,98786.78
2022-09-16T03:31:34.796Z,98780.22
2022-09-16T03:34:37.801Z,98779.94
2022-09-16T03:37:12.132Z,98779.25
2022-09-16T03:39:41.582Z,98775.84
2022-09-16T03:42:11.711Z,98777.13
2022-09-16T03:44:41.648Z,98771.72
2022-09-16T03:47:10.732Z,98777.06
2022-09-16T03:49:39.458Z,98781.78
2022-09-16T03:52:08.636Z,98785.19
2022-09-16T03:54:38.889Z,98781.06
2022-09-16T03:57:07.424Z,98784.63
2022-09-16T03:59:35.106Z,98785.91
2022-09-16T04:02:03.805Z,98781.19
2022-09-16T04:04:32.278Z,98784.31
2022-09-16T04:07:00.011Z,98786.88
2022-09-16T04:09:27.672Z,98779.06
2022-09-16T04:11:56.157Z,98793.63
2022-09-16T04:14:24.713Z,98799.00
2022-09-16T04:16:52.403Z,98812.13
2022-09-16T04:19:21.106Z,98818.94
2022-09-16T04:21:49.533Z,98814.09
2022-09-16T04:24:17.681Z,98819.25
2022-09-16T04:26:46.006Z,98807.81
2022-09-16T04:29:14.811Z,98818.09
2022-09-16T04:31:44.121Z,98810.66
2022-09-16T04:34:13.178Z,98816.06
2022-09-16T04:36:41.719Z,98821.16
2022-09-16T04:39:09.415Z,98816.28
2022-09-16T04:41:38.970Z,98823.34
2022-09-16T04:44:06.715Z,98828.56
2022-09-16T04:46:35.308Z,98838.53
2022-09-16T04:49:04.144Z,98843.00
2022-09-16T04:51:33.034Z,98841.16
2022-09-16T04:54:01.800Z,98835.44
2022-09-16T04:56:33.488Z,98822.59
2022-09-16T04:59:05.497Z,98815.50
2022-09-16T05:01:38.710Z,98823.31
2022-09-16T05:04:10.170Z,98828.22
2022-09-16T05:06:41.567Z,98829.03
2022-09-16T05:09:12.737Z,98836.56
2022-09-16T05:11:42.399Z,98833.97
2022-09-16T05:14:16.873Z,98829.31
2022-09-16T05:16:46.694Z,98833.75
2022-09-16T05:19:16.319Z,98830.13
2022-09-16T05:21:44.916Z,98838.47
2022-09-16T05:24:15.274Z,98838.47
2022-09-16T05:26:44.982Z,98833.91
2022-09-16T05:29:17.190Z,98837.31
2022-09-16T05:31:49.356Z,98839.06
2022-09-16T05:34:22.107Z,98845.91
2022-09-16T05:36:54.158Z,98848.09
2022-09-16T05:39:25.353Z,98849.00
2022-09-16T05:41:59.725Z,98850.69
2022-09-16T05:44:29.707Z,98859.38
2022-09-16T05:46:58.537Z,98853.00
2022-09-16T05:49:27.249Z,98847.69
2022-09-16T05:51:56.014Z,98851.31
2022-09-16T05:54:25.517Z,98852.78
2022-09-16T05:56:54.260Z,98848.00
2022-09-16T05:59:24.258Z,98840.41
2022-09-16T06:01:53.288Z,98831.66
2022-09-16T06:04:22.049Z,98834.94
2022-09-16T06:06:50.657Z,98837.97
2022-09-16T06:09:25.446Z,98826.38
2022-09-16T06:12:01.437Z,98824.91
2022-09-16T06:14:30.680Z,98830.59
2022-09-16T06:16:59.297Z,98844.66
2022-09-16T06:19:27.997Z,98845.13
2022-09-16T06:21:57.136Z,98847.78
2022-09-16T06:24:25.782Z,98852.09
2022-09-16T06:26:54.359Z,98850.72
2022-09-16T06:29:23.104Z,98856.31
2022-09-16T06:31:51.736Z,98861.06
2022-09-16T06:34:20.225Z,98863.59
2022-09-16T06:36:48.873Z,98859.19
2022-09-16T06:39:17.575Z,98866.28
2022-09-16T06:41:46.575Z,98855.75
2022-09-16T06:44:15.195Z,98858.34
2022-09-16T06:46:44.341Z,98858.16
2022-09-16T06:49:13.299Z,98853.56
2022-09-16T06:51:41.923Z,98855.75
2022-09-16T06:54:11.967Z,98852.72
2022-09-16T06:56:41.632Z,98854.44
2022-09-16T06:59:13.067Z,98849.75
2022-09-16T07:01:44.899Z,98850.84
2022-09-16T07:04:13.686Z,98862.47
2022-09-16T07:07:08.301Z,98859.69
2022-09-16T07:09:32.637Z,98865.81
2022-09-16T07:12:02.278Z,98872.19
2022-09-16T07:14:32.750Z,98878.59
2022-09-16T07:17:03.000Z,98880.09
2022-09-16T07:19:31.716Z,98880.22
2022-09-16T07:21:59.645Z,98873.13
2022-09-16T07:24:28.220Z,98870.47
2022-09-16T07:26:56.783Z,98879.25
2022-09-16T07:29:25.622Z,98881.84
2022-09-16T07:31:54.397Z,98883.69
2022-09-16T07:34:23.015Z,98877.44
2022-09-16T07:36:51.781Z,98889.19
2022-09-16T07:39:21.379Z,98894.63
2022-09-16T07:41:50.043Z,98894.06
2022-09-16T07:44:21.594Z,98884.75
2022-09-16T07:46:51.617Z,98890.78
2022-09-16T07:49:20.762Z,98893.06
2022-09-16T07:51:50.028Z,98895.03
2022-09-16T07:54:20.240Z,98892.41
2022-09-16T07:56:49.016Z,98898.94
2022-09-16T07:59:21.833Z,98899.66
2022-09-16T08:01:50.901Z,98906.81
2022-09-16T08:04:21.187Z,98902.28
2022-09-16T08:06:50.112Z,98893.47
2022-09-16T08:12:11.024Z,98897.53
2022-09-16T08:14:39.838Z,98907.44
2022-09-16T08:17:08.791Z,98913.69
2022-09-16T08:19:39.352Z,98913.88
2022-09-16T08:22:07.988Z,98909.09
2022-09-16T08:24:36.620Z,98902.03
2022-09-16T08:27:05.343Z,98904.09
2022-09-16T08:29:33.957Z,98907.94
2022-09-16T08:32:02.854Z,98913.09
2022-09-16T08:34:30.590Z,98909.19
2022-09-16T08:36:59.197Z,98915.38
2022-09-16T08:39:27.886Z,98917.78
2022-09-16T08:42:31.912Z,98914.00
2022-09-16T08:45:00.537Z,98914.16
2022-09-16T08:47:46.700Z,98914.34
2022-09-16T08:50:29.287Z,98919.31
2022-09-16T08:53:01.558Z,98923.13
2022-09-16T08:55:42.904Z,98921.59
2022-09-16T08:58:26.099Z,98917.53
2022-09-16T09:01:03.457Z,98914.28
2022-09-16T09:03:43.682Z,98919.13
2022-09-16T09:06:42.977Z,98916.94
2022-09-16T09:09:45.793Z,98917.56
2022-09-16T09:12:42.315Z,98906.00
2022-09-16T09:15:58.112Z,98904.97
2022-09-16T09:19:13.493Z,98912.03
2022-09-16T09:22:23.674Z,98913.00
2022-09-16T09:25:44.940Z,98914.75
2022-09-16T09:28:43.919Z,98925.31
2022-09-16T09:31:31.119Z,98921.88
2022-09-16T09:34:44.417Z,98936.13
2022-09-16T09:37:48.741Z,98927.47
2022-09-16T09:40:49.640Z,98933.94
2022-09-16T09:43:35.924Z,98923.16
2022-09-16T09:46:12.924Z,98927.59
2022-09-16T09:49:13.744Z,98922.03
2022-09-16T09:51:51.914Z,98908.16
2022-09-16T09:54:26.383Z,98912.03
2022-09-16T09:57:12.543Z,98907.53
2022-09-16T10:00:12.760Z,98905.59
2022-09-16T10:02:49.615Z,98921.06
2022-09-16T10:05:29.147Z,98913.41
2022-09-16T10:08:13.004Z,98928.09
2022-09-16T10:11:00.853Z,98919.97
2022-09-16T10:13:31.511Z,98918.66
2022-09-16T10:16:21.432Z,98924.22
2022-09-16T10:19:09.082Z,98920.41
2022-09-16T10:21:55.351Z,98910.19
2022-09-16T10:24:36.942Z,98902.91
2022-09-16T10:27:38.868Z,98908.31
2022-09-16T10:33:30.548Z,98910.25
2022-09-16T10:36:10.337Z,98903.75
2022-09-16T10:38:55.406Z,98895.06
2022-09-16T10:41:40.913Z,98905.09
2022-09-16T10:44:39.773Z,98910.78
2022-09-16T10:47:27.322Z,98898.47
2022-09-16T10:50:05.332Z,98896.25
2022-09-16T10:52:45.878Z,98891.41
2022-09-16T10:55:38.790Z,98893.91
2022-09-16T10:58:19.341Z,98895.09
2022-09-16T11:01:30.617Z,98895.72
2022-09-16T11:04:57.714Z,98893.41
2022-09-16T11:08:13.459Z,98888.47
2022-09-16T11:11:17.954Z,98897.81
2022-09-16T11:13:54.417Z,98903.53
2022-09-16T11:16:56.371Z,98904.00
2022-09-16T11:20:07.014Z,98897.41
2022-09-16T11:23:31.110Z,98896.09
2022-09-16T11:27:16.480Z,98895.25
2022-09-16T11:30:08.195Z,98903.00
2022-09-16T11:33:04.687Z,98905.53
2022-09-16T11:36:01.770Z,98903.78
2022-09-16T11:39:05.935Z,98892.97
2022-09-16T11:42:02.438Z,98889.38
2022-09-16T11:45:08.878Z,98889.47
2022-09-16T11:48:20.149Z,98892.78
2022-09-16T11:51:42.510Z,98881.69
2022-09-16T11:54:55.547Z,98883.63
2022-09-16T11:57:32.227Z,98880.28
2022-09-16T12:00:16.759Z,98877.72
2022-09-16T12:03:10.748Z,98876.53
2022-09-16T12:05:53.768Z,98875.94
2022-09-16T12:09:04.534Z,98868.38
2022-09-16T12:11:44.701Z,98870.09
2022-09-16T12:14:37.826Z,98865.84
2022-09-16T12:17:22.747Z,98866.34
2022-09-16T12:20:00.933Z,98871.97
2022-09-16T12:23:18.903Z,98878.28
2022-09-16T12:26:22.255Z,98861.75
2022-09-16T12:29:31.781Z,98860.53
2022-09-16T12:32:37.039Z,98853.41
2022-09-16T12:35:22.076Z,98861.91
2022-09-16T12:37:54.108Z,98852.22
2022-09-16T12:40:52.949Z,98849.34
2022-09-16T12:43:51.475Z,98845.91
2022-09-16T12:46:59.997Z,98840.47
2022-09-16T12:50:16.557Z,98845.59
2022-09-16T12:53:37.209Z,98837.09
2022-09-16T12:56:43.671Z,98835.72
2022-09-16T12:59:29.092Z,98841.16
2022-09-16T13:02:33.758Z,98834.03
2022-09-16T13:05:34.294Z,98827.91
2022-09-16T13:08:31.123Z,98836.41
2022-09-16T13:14:04.064Z,98820.72
2022-09-16T13:16:37.193Z,98819.19
2022-09-16T13:19:22.882Z,98822.47
2022-09-16T13:22:02.388Z,98813.13
2022-09-16T13:24:53.833Z,98825.19
2022-09-16T13:27:39.298Z,98826.72
2022-09-16T13:30:13.815Z,98824.81
2022-09-16T13:32:54.181Z,98818.00
2022-09-16T13:35:44.745Z,98806.38
2022-09-16T13:38:18.805Z,98809.16
2022-09-16T13:41:02.126Z,98805.50
2022-09-16T13:43:53.033Z,98801.81
2022-09-16T13:46:50.625Z,98800.41
2022-09-16T13:49:27.893Z,98802.97
2022-09-16T13:51:57.368Z,98796.00
2022-09-16T13:55:06.287Z,98794.91
2022-09-16T13:57:59.076Z,98797.44
2022-09-16T14:00:36.405Z,98786.78
2022-09-16T14:03:16.819Z,98786.66
2022-09-16T14:06:12.451Z,98783.63
2022-09-16T14:09:44.137Z,98781.31
2022-09-16T14:13:03.091Z,98781.16
2022-09-16T14:15:43.013Z,98772.16
2022-09-16T14:18:19.308Z,98765.66
2022-09-16T14:21:20.921Z,98763.59
2022-09-16T14:23:51.000Z,98766.34
2022-09-16T14:26:24.208Z,98761.41
2022-09-16T14:29:04.954Z,98755.44
2022-09-16T14:31:35.327Z,98756.50
2022-09-16T14:34:09.771Z,98759.56
2022-09-16T14:36:40.902Z,98757.53
2022-09-16T14:39:14.117Z,98773.47
2022-09-16T14:41:45.090Z,98770.75
2022-09-16T14:44:40.095Z,98777.19
2022-09-16T14:47:47.491Z,98781.63
2022-09-16T14:50:31.720Z,98775.78
2022-09-16T14:53:08.303Z,98760.50
2022-09-16T14:55:40.343Z,98763.25
2022-09-16T14:58:11.780Z,98770.34
2022-09-16T15:00:54.324Z,98758.16
2022-09-16T15:03:34.229Z,98754.09
2022-09-16T15:06:11.890Z,98764.59
2022-09-16T15:08:54.575Z,98765.44
2022-09-16T15:11:48.410Z,98759.47
2022-09-16T15:14:18.333Z,98751.31
2022-09-16T15:16:54.991Z,98752.38
2022-09-16T15:19:31.793Z,98743.88
2022-09-16T15:22:00.763Z,98737.94
2022-09-16T15:24:33.988Z,98738.41
2022-09-16T15:27:02.826Z,98732.28
2022-09-16T15:29:36.916Z,98735.19
2022-09-16T15:32:21.807Z,98724.44
2022-09-16T15:35:27.614Z,98728.16
2022-09-16T15:37:56.544Z,98723.44
2022-09-16T15:40:27.211Z,98732.09
2022-09-16T15:43:27.930Z,98737.28
2022-09-16T15:46:25.794Z,98744.09
2022-09-16T15:49:01.963Z,98736.25
2022-09-16T15:51:37.847Z,98750.84
2022-09-16T15:54:32.590Z,98752.78
2022-09-16T15:57:38.398Z,98755.66
2022-09-16T16:00:12.997Z,98755.41
2022-09-16T16:02:59.323Z,98749.66
2022-09-16T16:05:32.061Z,98750.38
2022-09-16T16:08:09.077Z,98753.69
2022-09-16T16:10:42.113Z,98752.38
2022-09-16T16:13:09.685Z,98749.66
2022-09-16T16:15:41.242Z,98751.25
2022-09-16T16:18:10.882Z,98738.59
2022-09-16T16:20:40.406Z,98752.22
2022-09-16T16:23:08.244Z,98750.16
2022-09-16T16:25:35.923Z,98751.41
2022-09-16T16:28:04.123Z,98748.44
2022-09-16T16:30:31.934Z,98746.06
2022-09-16T16:32:59.573Z,98739.13
2022-09-16T16:35:28.941Z,98731.69
2022-09-16T16:37:58.171Z,98741.25
2022-09-16T16:40:26.070Z,98738.16
2022-09-16T16:42:53.687Z,98739.28
2022-09-16T16:45:23.131Z,98741.47
2022-09-16T16:47:50.828Z,98743.78
2022-09-16T16:50:18.450Z,98739.09
2022-09-16T16:52:53.491Z,98734.66
2022-09-16T16:55:21.113Z,98740.16
2022-09-16T16:57:50.572Z,98734.88
2022-09-16T17:00:18.953Z,98734.81
2022-09-16T17:02:47.149Z,98728.84
2022-09-16T17:05:14.880Z,98728.22
2022-09-16T17:07:42.563Z,98735.16
2022-09-16T17:10:12.009Z,98731.84
2022-09-16T17:12:42.196Z,98733.09
2022-09-16T17:15:10.379Z,98729.91
2022-09-16T17:17:40.666Z,98725.84
2022-09-16T17:20:10.233Z,98726.28
2022-09-16T17:22:37.851Z,98727.31
2022-09-16T17:25:06.130Z,98735.59
2022-09-16T17:27:34.083Z,98730.72
2022-09-16T17:30:04.044Z,98726.16
2022-09-16T17:32:31.660Z,98721.50
2022-09-16T17:34:59.291Z,98726.09
2022-09-16T17:37:26.990Z,98720.56
2022-09-16T17:39:54.730Z,98708.56
2022-09-16T17:42:22.401Z,98702.31
2022-09-16T17:44:53.765Z,98694.50
2022-09-16T17:47:22.135Z,98703.00
2022-09-16T17:49:50.201Z,98699.00
2022-09-16T17:52:17.787Z,98700.38
2022-09-16T17:54:45.432Z,98692.53
2022-09-16T17:57:13.007Z,98697.06
2022-09-16T17:59:42.206Z,98701.84
2022-09-16T18:02:12.202Z,98703.94
2022-09-16T18:04:43.442Z,98705.31
2022-09-16T18:07:11.112Z,98702.84
2022-09-16T18:09:40.708Z,98702.00
2022-09-16T18:12:08.497Z,98706.31
2022-09-16T18:14:36.341Z,98706.09
2022-09-16T18:17:04.524Z,98711.72
2022-09-16T18:19:33.244Z,98722.72
2022-09-16T18:22:00.956Z,98733.94
2022-09-16T18:24:28.552Z,98730.94
2022-09-16T18:26:56.199Z,98735.94
2022-09-16T18:29:23.861Z,98729.16
2022-09-16T18:31:52.847Z,98737.28
2022-09-16T18:34:21.113Z,98735.31
2022-09-16T18:36:48.780Z,98734.78
2022-09-16T18:39:18.401Z,98736.34
2022-09-16T18:41:47.219Z,98737.59
2022-09-16T18:44:20.109Z,98729.38
2022-09-16T18:46:48.394Z,98727.81
2022-09-16T18:49:18.963Z,98721.34
2022-09-16T18:51:52.108Z,98729.91
2022-09-16T18:54:28.850Z,98734.31
2022-09-16T18:57:02.057Z,98736.19
2022-09-16T18:59:34.236Z,98736.81
2022-09-16T19:02:05.830Z,98737.19
2022-09-16T19:04:42.504Z,98736.19
2022-09-16T19:07:14.524Z,98731.31
2022-09-16T19:09:42.616Z,98731.25
2022-09-16T19:12:13.237Z,98725.97
2022-09-16T19:14:43.299Z,98726.66
2022-09-16T19:17:11.190Z,98728.13
2022-09-16T19:19:39.002Z,98719.22
2022-09-16T19:22:06.752Z,98716.66
2022-09-16T19:24:35.227Z,98714.59
2022-09-16T19:27:06.448Z,98704.75
2022-09-16T19:29:35.971Z,98689.97
2022-09-16T19:32:05.592Z,98697.09
2022-09-16T19:34:33.427Z,98700.41
2022-09-16T19:37:02.901Z,98716.53
2022-09-16T19:39:32.292Z,98723.25
2022-09-16T19:42:03.881Z,98724.84
2022-09-16T19:44:32.108Z,98716.81
2022-09-16T19:46:59.844Z,98714.28
2022-09-16T19:49:27.494Z,98719.00
2022-09-16T19:51:55.307Z,98718.81
2022-09-16T19:54:24.382Z,98717.75
2022-09-16T19:56:52.619Z,98723.22
2022-09-16T19:59:21.239Z,98724.09
2022-09-16T20:01:49.775Z,98730.84
2022-09-16T20:04:20.571Z,98737.00
2022-09-16T20:06:49.010Z,98725.22
2022-09-16T20:09:20.047Z,98718.34
2022-09-16T20:11:49.226Z,98725.16
2022-09-16T20:14:21.867Z,98712.97
2022-09-16T20:16:52.093Z,98712.97
2022-09-16T20:19:21.224Z,98711.84
2022-09-16T20:21:49.238Z,98709.59
2022-09-16T20:24:24.763Z,98710.31
2022-09-16T20:26:57.486Z,98722.69
2022-09-16T20:29:27.081Z,98726.94
2022-09-16T20:31:56.507Z,98723.09
2022-09-16T20:34:27.787Z,98717.81
2022-09-16T20:36:57.121Z,98720.53
2022-09-16T20:39:26.576Z,98723.66
2022-09-16T20:41:56.030Z,98723.84
2022-09-16T20:44:27.228Z,98716.91
2022-09-16T20:46:58.376Z,98719.75
2022-09-16T20:49:26.520Z,98724.09
2022-09-16T20:51:55.277Z,98720.94
2022-09-16T20:54:22.913Z,98723.28
2022-09-16T20:56:50.665Z,98729.25
2022-09-16T20:59:20.740Z,98720.94
2022-09-16T21:01:50.302Z,98718.75
2022-09-16T21:04:21.635Z,98722.44
2022-09-16T21:06:51.071Z,98724.53
2022-09-16T21:09:19.290Z,98727.28
2022-09-16T21:11:47.874Z,98730.16
2022-09-16T21:14:18.147Z,98734.44
2022-09-16T21:16:47.221Z,98734.78
2022-09-16T21:19:18.027Z,98744.66
2022-09-16T21:21:50.052Z,98734.75
2022-09-16T21:24:19.296Z,98725.22
2022-09-16T21:26:47.118Z,98728.78
2022-09-16T21:29:21.260Z,98726.22
2022-09-16T21:31:51.724Z,98736.47
2022-09-16T21:34:21.736Z,98745.06
2022-09-16T21:36:50.940Z,98742.91
2022-09-16T21:39:21.230Z,98731.22
2022-09-16T21:41:50.877Z,98731.94
2022-09-16T21:44:20.330Z,98735.59
2022-09-16T21:46:51.004Z,98741.44
2022-09-16T21:49:25.871Z,98744.38
2022-09-16T21:51:57.360Z,98744.25
2022-09-16T21:54:26.727Z,98740.56
2022-09-16T21:56:54.499Z,98742.97
2022-09-16T21:59:22.348Z,98741.84
2022-09-16T22:01:51.920Z,98744.84
2022-09-16T22:04:24.415Z,98746.22
2022-09-16T22:06:55.731Z,98745.97
2022-09-16T22:09:24.454Z,98757.78
2022-09-16T22:11:52.348Z,98748.69
2022-09-16T22:14:20.899Z,98751.28
2022-09-16T22:16:48.552Z,98751.28
2022-09-16T22:19:19.544Z,98750.69
2022-09-16T22:21:51.103Z,98747.97
2022-09-16T22:24:21.622Z,98739.28
2022-09-16T22:26:51.772Z,98746.72
2022-09-16T22:29:20.036Z,98751.72
2022-09-16T22:31:48.336Z,98752.25
2022-09-16T22:34:16.959Z,98754.38
2022-09-16T22:36:44.890Z,98764.09
2022-09-16T22:39:18.385Z,98762.53
2022-09-16T22:41:47.762Z,98770.06
2022-09-16T22:44:15.536Z,98770.38
2022-09-16T22:46:48.105Z,98785.72
2022-09-16T22:49:17.859Z,98790.72
2022-09-16T22:51:46.501Z,98788.31
2022-09-16T22:54:15.972Z,98786.03
2022-09-16T22:56:45.062Z,98786.34
2022-09-16T22:59:20.973Z,98787.59
2022-09-16T23:01:49.803Z,98795.97
2022-09-16T23:04:18.149Z,98797.56
2022-09-16T23:06:46.891Z,98792.59
2022-09-16T23:09:15.701Z,98791.47
2022-09-16T23:11:44.918Z,98786.03
2022-09-16T23:14:24.906Z,98781.50
2022-09-16T23:16:54.400Z,98778.78
2022-09-16T23:19:22.699Z,98783.47
2022-09-16T23:21:50.505Z,98784.06
2022-09-16T23:24:22.249Z,98780.81
2022-09-16T23:26:50.758Z,98783.22
2022-09-16T23:29:19.304Z,98776.38
2022-09-16T23:31:47.370Z,98777.41
2022-09-16T23:34:21.845Z,98775.97
2022-09-16T23:36:51.174Z,98780.28
2022-09-16T23:39:19.849Z,98779.56
2022-09-16T23:41:49.589Z,98771.31
2022-09-16T23:44:18.191Z,98757.38
2022-09-16T23:46:46.182Z,98765.19
2022-09-16T23:49:19.418Z,98761.94
2022-09-16T23:51:48.638Z,98764.78
2022-09-16T23:54:17.697Z,98765.34
2022-09-16T23:56:46.178Z,98761.09
2022-09-16T23:59:14.685Z,98756.53
